Time;durP1;ratioP1;P1;durP2;ratioP2;P2;SDS_P1;SDS_P2;PMS_P1;PMS_P2;Temp;Humidity;BMP_temperature;BMP_pressure;BME280_temperature;BME280_humidity;BME280_pressure;Samples;Min_cycle;Max_cycle;Signal;HPM_P1;HPM_P2
2021/09/16 00:00:59;;;;;;;2.67;1.80;;;23.10;52.60;;;27.11;35.28;100760.81;5113101;28;20074;-11
2021/09/16 00:03:25;;;;;;;2.30;2.10;;;23.10;52.60;;;27.13;35.37;100769.59;5113112;28;20055;-11
2021/09/16 00:05:51;;;;;;;2.28;2.08;;;23.10;52.60;;;27.13;35.08;100771.41;5113542;28;20104;-12
2021/09/16 00:08:17;;;;;;;2.33;2.13;;;23.10;52.60;;;27.13;35.08;100780.31;5112659;28;20051;-11
2021/09/16 00:10:43;;;;;;;2.85;2.20;;;23.10;52.60;;;27.09;35.11;100770.84;5094783;28;20130;-11
2021/09/16 00:13:10;;;;;;;2.65;2.35;;;23.10;52.70;;;27.10;35.32;100780.59;5113348;28;20047;-11
2021/09/16 00:15:36;;;;;;;2.42;2.13;;;23.10;52.80;;;27.12;35.19;100775.09;5113381;28;20398;-11
2021/09/16 00:18:02;;;;;;;2.88;2.25;;;23.10;52.80;;;27.11;35.08;100773.38;5112907;28;20054;-11
2021/09/16 00:20:28;;;;;;;1.75;1.65;;;23.10;52.80;;;27.10;35.02;100783.28;5113280;28;20058;-11
2021/09/16 00:22:54;;;;;;;2.20;2.00;;;23.10;52.80;;;27.09;35.04;100772.69;5112797;28;20046;-11
2021/09/16 00:25:20;;;;;;;2.10;1.90;;;23.10;52.80;;;27.11;35.21;100782.28;5112853;28;20047;-11
2021/09/16 00:27:46;;;;;;;3.10;2.30;;;23.10;52.80;;;27.11;35.22;100784.97;5112837;28;20545;-11
2021/09/16 00:30:12;;;;;;;2.40;2.20;;;23.10;52.80;;;27.09;35.35;100776.19;5110380;28;20048;-11
2021/09/16 00:32:39;;;;;;;1.90;1.80;;;23.10;52.70;;;27.11;35.30;100789.50;5093441;28;20074;-11
2021/09/16 00:35:07;;;;;;;3.53;2.40;;;23.10;52.60;;;27.11;35.20;100786.81;5094746;28;20074;-11
2021/09/16 00:37:33;;;;;;;2.40;1.90;;;23.10;52.70;;;27.10;35.32;100785.13;5114658;28;20491;-12
2021/09/16 00:40:00;;;;;;;2.30;2.10;;;23.10;52.70;;;27.09;35.11;100789.63;5116051;28;20138;-11
2021/09/16 00:42:25;;;;;;;2.03;1.83;;;23.10;52.60;;;27.12;35.32;100793.88;5116285;28;20047;-11
2021/09/16 00:44:52;;;;;;;1.90;1.80;;;23.10;52.70;;;27.12;35.19;100791.19;5116325;28;20047;-11
2021/09/16 00:47:18;;;;;;;2.17;1.98;;;23.10;52.70;;;27.09;35.18;100784.25;5116186;28;20042;-11
2021/09/16 00:49:44;;;;;;;2.17;2.00;;;23.10;52.70;;;27.07;35.01;100783.56;5116112;28;20051;-11
2021/09/16 00:52:12;;;;;;;2.30;2.10;;;23.10;52.60;;;27.09;35.28;100789.63;5116118;28;20044;-11
2021/09/16 00:54:43;;;;;;;1.98;1.88;;;23.10;52.70;;;27.09;35.04;100789.63;5116059;28;20046;-11
2021/09/16 00:57:12;;;;;;;3.00;2.13;;;23.10;52.70;;;27.10;35.30;100790.50;5116162;28;20050;-11
2021/09/16 00:59:39;;;;;;;2.38;1.92;;;23.10;52.70;;;27.11;35.34;100792.16;5097752;28;20086;-11
2021/09/16 01:02:04;;;;;;;1.90;1.80;;;23.10;52.60;;;27.11;35.17;100793.00;5097335;28;20403;-11
2021/09/16 01:04:31;;;;;;;2.47;2.28;;;23.10;52.60;;;27.11;35.28;100801.06;5097705;28;20055;-11
2021/09/16 01:06:58;;;;;;;2.10;1.90;;;23.10;52.60;;;27.09;35.27;100789.63;5115991;28;20059;-11
2021/09/16 01:09:25;;;;;;;3.10;2.13;;;23.10;52.60;;;27.11;35.14;100794.84;5097493;28;20048;-11
2021/09/16 01:11:52;;;;;;;2.00;1.90;;;23.10;52.70;;;27.11;35.10;100784.13;5115829;28;20047;-11
2021/09/16 01:14:27;;;;;;;2.45;2.25;;;23.10;52.70;;;27.08;35.31;100793.31;5116310;28;20047;-11
2021/09/16 01:16:54;;;;;;;2.58;2.15;;;23.10;52.70;;;27.08;35.21;100789.75;5115846;28;20071;-11
2021/09/16 01:19:21;;;;;;;2.03;1.90;;;23.10;52.60;;;27.10;35.30;100788.66;5115482;28;20126;-11
2021/09/16 01:21:48;;;;;;;2.20;2.00;;;23.10;52.70;;;27.09;35.04;100783.41;5115590;28;20075;-11
2021/09/16 01:24:14;;;;;;;3.60;2.20;;;23.10;52.70;;;27.09;35.49;100786.09;5115608;28;20044;-11
2021/09/16 01:26:44;;;;;;;2.30;2.10;;;23.10;52.70;;;27.09;35.17;100788.78;5115517;28;20108;-11
2021/09/16 01:29:11;;;;;;;2.60;2.25;;;23.10;52.70;;;27.08;35.25;100789.75;5115134;28;20479;-12
2021/09/16 01:31:46;;;;;;;2.53;2.30;;;23.10;52.70;;;27.06;35.30;100787.22;5115546;28;20048;-11
2021/09/16 01:34:14;;;;;;;2.13;1.92;;;23.10;52.80;;;27.08;35.32;100789.75;5097466;28;20044;-11
2021/09/16 01:36:42;;;;;;;3.15;2.10;;;23.10;52.80;;;27.05;35.33;100790.03;5115664;28;20047;-11
2021/09/16 01:39:10;;;;;;;2.25;2.03;;;23.10;52.70;;;27.08;35.51;100789.75;5115222;28;20502;-12
2021/09/16 01:41:37;;;;;;;2.20;2.00;;;23.10;52.80;;;27.09;35.07;100786.94;5115321;28;20555;-11
2021/09/16 01:44:03;;;;;;;2.00;1.90;;;23.10;52.80;;;27.07;35.40;100796.13;5115801;28;20051;-11
2021/09/16 01:46:30;;;;;;;2.03;1.90;;;23.10;52.70;;;27.05;35.22;100796.25;5097470;28;20379;-11
2021/09/16 01:48:58;;;;;;;1.92;1.83;;;23.10;52.70;;;27.06;35.20;100795.25;5114649;28;20051;-11
2021/09/16 01:51:24;;;;;;;2.50;2.30;;;23.10;52.70;;;27.07;35.23;100801.50;5115105;28;20419;-11
2021/09/16 01:53:50;;;;;;;2.22;2.08;;;23.10;52.80;;;27.05;35.22;100804.31;5115197;28;20081;-11
2021/09/16 01:56:16;;;;;;;2.13;1.85;;;23.10;52.80;;;27.06;35.30;100797.94;5115142;28;20047;-11
2021/09/16 01:58:42;;;;;;;2.10;1.90;;;23.10;52.80;;;27.06;35.27;100803.31;5115030;28;20056;-11
2021/09/16 02:01:10;;;;;;;2.20;2.00;;;23.10;52.80;;;27.06;35.33;100806.00;5114884;28;20054;-11
2021/09/16 02:03:36;;;;;;;2.28;1.88;;;23.00;52.80;;;27.07;35.28;100802.34;5113991;28;20047;-11
2021/09/16 02:06:02;;;;;;;2.00;1.85;;;23.10;52.90;;;27.05;35.34;100798.94;5114940;28;20051;-11
2021/09/16 02:08:28;;;;;;;2.80;2.05;;;23.10;52.90;;;27.07;35.52;100798.81;5114721;28;20101;-11
2021/09/16 02:10:54;;;;;;;2.20;1.98;;;23.10;52.80;;;27.08;35.38;100803.19;5114700;28;20055;-11
2021/09/16 02:13:20;;;;;;;2.00;1.80;;;23.10;52.80;;;27.08;35.24;100803.19;5115025;28;20054;-11
2021/09/16 02:15:46;;;;;;;1.77;1.67;;;23.10;52.80;;;27.05;35.16;100796.25;5096571;28;20131;-11
2021/09/16 02:18:12;;;;;;;2.58;2.30;;;23.10;52.70;;;27.04;35.31;100797.25;5114640;28;20048;-11
2021/09/16 02:20:38;;;;;;;2.08;1.98;;;23.10;52.70;;;27.05;35.31;100801.63;5114452;28;20052;-11
2021/09/16 02:23:05;;;;;;;1.85;1.75;;;23.10;53.30;;;27.05;35.12;100808.81;5114527;28;20184;-11
2021/09/16 02:25:31;;;;;;;1.83;1.73;;;23.10;52.80;;;27.07;35.36;100807.69;5114666;28;20056;-11
2021/09/16 02:27:56;;;;;;;2.10;1.90;;;23.10;52.90;;;27.07;35.13;100809.56;5115211;28;20054;-11
2021/09/16 02:30:22;;;;;;;2.13;1.75;;;23.10;52.90;;;27.07;35.16;100814.91;5115091;28;20372;-11
2021/09/16 02:32:48;;;;;;;2.35;2.00;;;23.10;52.80;;;27.07;35.29;100815.75;5114440;28;20044;-11
2021/09/16 02:35:14;;;;;;;2.20;2.00;;;23.10;52.80;;;27.04;35.40;100805.28;5114783;28;20101;-11
2021/09/16 02:37:40;;;;;;;2.25;2.05;;;23.10;52.80;;;27.05;35.09;100820.41;5114562;28;20043;-11
2021/09/16 02:40:09;;;;;;;2.45;1.85;;;23.10;52.80;;;27.07;35.32;100814.91;5114562;28;20051;-11
2021/09/16 02:42:34;;;;;;;2.22;2.08;;;23.10;52.70;;;27.06;35.36;100813.22;5114287;28;20050;-11
2021/09/16 02:45:00;;;;;;;2.15;1.98;;;23.10;52.70;;;27.05;35.35;100815.03;5114369;28;20047;-11
2021/09/16 02:47:26;;;;;;;2.28;2.08;;;23.10;52.70;;;27.08;35.36;100819.28;5114390;28;20043;-11
2021/09/16 02:49:52;;;;;;;2.20;2.00;;;23.10;52.80;;;27.07;35.42;100814.91;5114052;28;20051;-11
2021/09/16 02:52:17;;;;;;;1.98;1.80;;;23.00;52.80;;;27.03;35.23;100814.34;5114185;28;20534;-11
2021/09/16 02:54:43;;;;;;;2.20;1.80;;;23.10;52.90;;;27.04;35.57;100810.66;5114504;28;20103;-11
2021/09/16 02:57:09;;;;;;;2.25;2.05;;;23.10;52.90;;;27.07;35.34;100820.28;5114530;28;20040;-11
2021/09/16 02:59:35;;;;;;;1.90;1.80;;;23.10;52.90;;;27.06;35.25;100822.09;5095693;28;20165;-11
2021/09/16 03:02:00;;;;;;;2.33;2.13;;;23.10;52.80;;;27.07;35.15;100814.91;5114046;28;20104;-11
2021/09/16 03:04:26;;;;;;;2.10;1.90;;;23.10;52.80;;;27.05;35.28;100816.88;5113974;28;20044;-11
2021/09/16 03:06:52;;;;;;;1.92;1.83;;;23.10;52.80;;;27.04;35.34;100816.03;5114039;28;20043;-11
2021/09/16 03:09:17;;;;;;;2.13;1.83;;;23.10;52.80;;;27.06;35.28;100821.25;5113903;28;20047;-11
2021/09/16 03:11:43;;;;;;;2.30;2.10;;;23.10;52.80;;;27.06;35.14;100818.56;5078841;28;20044;-11
2021/09/16 03:14:10;;;;;;;3.55;2.30;;;23.00;52.80;;;27.06;35.14;100824.78;5114186;28;20043;-11
2021/09/16 03:16:36;;;;;;;2.10;2.00;;;23.10;52.90;;;27.04;35.43;100818.69;5113781;28;20518;-11
2021/09/16 03:19:02;;;;;;;2.65;2.30;;;23.10;52.90;;;27.03;35.23;100822.41;5114113;28;20067;-11
2021/09/16 03:21:28;;;;;;;1.77;1.67;;;23.00;52.90;;;27.05;35.26;100830.28;5113741;28;20052;-11
2021/09/16 03:23:53;;;;;;;2.40;1.88;;;23.00;52.90;;;27.04;35.29;100825.91;5113738;28;20047;-11
2021/09/16 03:26:19;;;;;;;1.88;1.77;;;23.00;52.90;;;27.04;35.35;100823.22;5113617;28;20051;-11
2021/09/16 03:28:46;;;;;;;1.92;1.83;;;23.00;53.00;;;27.05;35.29;100824.91;5111976;28;20058;-11
2021/09/16 03:31:13;;;;;;;2.55;1.83;;;23.00;52.90;;;27.04;35.12;100834.81;5113585;28;20039;-11
2021/09/16 03:33:40;;;;;;;2.45;1.90;;;23.00;52.90;;;27.05;35.44;100830.28;5113527;28;20180;-11
2021/09/16 03:36:06;;;;;;;2.60;2.00;;;23.10;52.90;;;27.02;35.44;100826.06;5113571;28;20052;-11
2021/09/16 03:38:32;;;;;;;2.33;2.13;;;23.00;52.90;;;27.03;35.42;100833.13;5113445;28;20077;-11
2021/09/16 03:40:57;;;;;;;1.70;1.60;;;23.10;52.80;;;27.04;35.38;100825.91;5113117;28;20051;-11
2021/09/16 03:43:23;;;;;;;1.88;1.75;;;23.10;52.80;;;27.04;35.08;100833.97;5113145;28;20055;-12
2021/09/16 03:45:49;;;;;;;1.98;1.80;;;23.10;52.80;;;27.05;35.44;100830.28;5113131;28;20124;-11
2021/09/16 03:48:15;;;;;;;1.77;1.63;;;23.10;52.90;;;27.04;35.50;100828.59;5113124;28;20055;-11
2021/09/16 03:50:41;;;;;;;2.13;1.80;;;23.10;52.90;;;27.04;35.44;100829.44;5113096;28;20055;-11
2021/09/16 03:53:06;;;;;;;2.05;1.85;;;23.10;52.90;;;27.03;35.35;100826.88;5113267;28;20086;-11
2021/09/16 03:55:32;;;;;;;2.53;2.00;;;23.10;52.80;;;27.04;35.63;100828.59;5113577;28;20399;-11
2021/09/16 03:57:58;;;;;;;1.90;1.80;;;23.10;52.80;;;27.05;35.45;100832.97;5093754;28;20051;-11
2021/09/16 04:00:24;;;;;;;2.03;1.80;;;23.00;52.80;;;27.03;35.39;100829.56;5113680;28;20051;-12
2021/09/16 04:02:50;;;;;;;2.30;2.10;;;23.00;52.80;;;27.05;35.21;100841.00;5112379;28;20051;-11
2021/09/16 04:05:16;;;;;;;1.80;1.70;;;23.10;52.80;;;27.05;35.16;100838.31;5113300;28;20039;-11
2021/09/16 04:07:41;;;;;;;1.70;1.60;;;23.10;52.80;;;27.04;35.27;100833.97;5113645;28;20134;-11
2021/09/16 04:10:08;;;;;;;1.70;1.60;;;23.10;52.80;;;27.04;35.19;100842.03;5112976;28;20048;-11
2021/09/16 04:12:35;;;;;;;2.13;1.92;;;23.10;52.80;;;27.03;35.24;100838.50;5112412;28;20040;-11
2021/09/16 04:15:01;;;;;;;2.03;1.92;;;23.00;52.80;;;27.04;35.26;100833.97;5113086;28;20078;-11
2021/09/16 04:17:27;;;;;;;2.13;1.80;;;23.00;52.90;;;27.01;35.16;100828.88;5112725;28;20147;-11
2021/09/16 04:19:53;;;;;;;2.00;1.80;;;23.00;52.90;;;27.03;35.19;100840.31;5113254;28;20063;-11
2021/09/16 04:22:19;;;;;;;1.85;1.73;;;23.00;52.90;;;27.00;35.46;100833.41;5113387;28;20051;-11
2021/09/16 04:24:45;;;;;;;2.33;1.80;;;23.00;52.90;;;27.04;35.35;100842.84;5113001;28;20062;-11
2021/09/16 04:27:13;;;;;;;1.88;1.70;;;23.00;52.80;;;27.00;35.31;100836.06;5113173;28;20044;-11
2021/09/16 04:29:40;;;;;;;2.10;1.80;;;23.00;52.80;;;27.00;35.54;100830.72;5112705;28;20047;-11
2021/09/16 04:32:06;;;;;;;2.00;1.73;;;23.00;52.90;;;27.02;35.50;100844.84;5113065;28;20130;-11
2021/09/16 04:34:32;;;;;;;1.60;1.50;;;23.00;52.90;;;26.98;35.33;100835.34;5113120;28;20043;-11
2021/09/16 04:36:58;;;;;;;2.38;1.63;;;23.00;52.80;;;27.04;35.27;100836.66;5113048;28;20048;-11
2021/09/16 04:39:24;;;;;;;3.25;2.03;;;23.00;52.80;;;27.01;35.45;100827.03;5112999;28;20048;-11
2021/09/16 04:41:49;;;;;;;1.60;1.50;;;23.00;52.80;;;27.03;35.39;100837.63;5112693;28;20039;-11
2021/09/16 04:44:15;;;;;;;1.83;1.73;;;23.00;52.80;;;27.01;35.31;100842.28;5112797;28;20434;-11
2021/09/16 04:46:42;;;;;;;2.00;1.83;;;23.00;52.80;;;27.03;35.35;100857.28;5112487;28;20101;-11
2021/09/16 04:49:07;;;;;;;2.00;1.80;;;23.00;52.70;;;27.03;35.29;100853.72;5112401;28;20043;-11
2021/09/16 04:51:33;;;;;;;1.60;1.50;;;23.00;52.80;;;27.01;35.30;100844.97;5112813;28;20177;-11
2021/09/16 04:53:59;;;;;;;2.50;2.00;;;23.00;52.90;;;26.98;35.15;100851.44;5112523;28;20047;-11
2021/09/16 04:56:25;;;;;;;2.20;2.00;;;23.00;52.90;;;27.02;35.43;100852.03;5112674;28;20050;-11
2021/09/16 04:58:52;;;;;;;1.90;1.80;;;23.00;52.90;;;27.00;35.20;100854.84;5112414;28;20085;-11
2021/09/16 05:01:19;;;;;;;1.92;1.70;;;23.00;52.90;;;27.00;35.31;100857.53;5112377;28;20043;-11
2021/09/16 05:03:46;;;;;;;1.70;1.60;;;23.00;52.90;;;27.02;35.42;100857.41;5112324;28;20047;-11
2021/09/16 05:06:13;;;;;;;2.67;1.98;;;23.00;52.90;;;27.02;35.52;100855.56;5093869;28;20403;-11
2021/09/16 05:08:42;;;;;;;1.70;1.60;;;23.00;52.90;;;27.02;35.26;100844.00;5112596;28;20044;-11
2021/09/16 05:11:12;;;;;;;2.03;1.73;;;23.00;52.90;;;27.00;35.27;100854.84;5112321;28;20044;-11
2021/09/16 05:13:41;;;;;;;2.05;1.85;;;23.00;52.80;;;27.02;35.44;100850.19;5112590;28;20054;-11
2021/09/16 05:16:07;;;;;;;1.65;1.42;;;23.00;52.90;;;27.02;35.43;100847.53;5112318;28;20427;-11
2021/09/16 05:18:33;;;;;;;1.75;1.65;;;23.00;52.90;;;27.02;35.45;100849.34;5111768;28;20052;-11
2021/09/16 05:20:59;;;;;;;1.98;1.80;;;23.00;52.90;;;27.01;35.51;100851.19;5111841;28;20051;-11
2021/09/16 05:23:24;;;;;;;1.88;1.70;;;23.00;52.80;;;26.99;35.56;100835.22;5112017;28;20087;-11
2021/09/16 05:25:50;;;;;;;1.92;1.60;;;23.00;52.70;;;26.99;35.39;100842.41;5115201;28;20067;-11
2021/09/16 05:28:17;;;;;;;1.80;1.70;;;23.00;52.70;;;27.02;35.33;100846.69;5115104;28;20048;-11
2021/09/16 05:30:42;;;;;;;1.70;1.60;;;23.10;52.80;;;27.03;35.15;100856.41;5115390;28;20097;-11
2021/09/16 05:33:09;;;;;;;2.58;1.85;;;23.00;52.60;;;27.03;35.35;100856.41;5115693;28;20047;-11
2021/09/16 05:35:39;;;;;;;1.50;1.40;;;23.00;52.70;;;27.02;35.30;100857.41;5115441;28;20051;-11
2021/09/16 05:38:06;;;;;;;1.87;1.60;;;23.00;52.70;;;27.04;35.35;100860.81;5115287;28;20415;-11
2021/09/16 05:40:32;;;;;;;1.55;1.45;;;23.10;52.80;;;27.02;35.34;100860.09;5115419;28;20281;-11
2021/09/16 05:42:58;;;;;;;1.77;1.67;;;23.00;52.70;;;27.02;35.18;100865.47;5115785;28;20137;-11
2021/09/16 05:45:24;;;;;;;1.60;1.50;;;23.00;52.70;;;26.99;35.19;100858.50;5115293;28;20040;-11
2021/09/16 05:47:50;;;;;;;1.67;1.58;;;23.00;52.70;;;26.99;35.36;100858.50;5115384;28;20046;-11
2021/09/16 05:50:15;;;;;;;1.65;1.55;;;23.00;52.70;;;27.01;35.27;100861.06;5115342;28;20047;-11
2021/09/16 05:52:41;;;;;;;2.28;1.55;;;23.00;52.70;;;26.99;35.35;100862.03;5115154;28;20059;-11
2021/09/16 05:55:09;;;;;;;1.70;1.60;;;23.00;52.60;;;27.02;35.48;100862.78;5115229;28;20499;-11
2021/09/16 05:57:36;;;;;;;1.70;1.60;;;23.10;52.70;;;27.02;35.45;100857.41;5115150;28;20044;-11
2021/09/16 06:00:06;;;;;;;1.35;1.25;;;23.10;52.80;;;27.02;35.34;100860.94;5114898;28;20479;-11
2021/09/16 06:02:32;;;;;;;1.52;1.42;;;23.00;52.70;;;27.03;35.20;100862.66;5115459;28;20051;-11
2021/09/16 06:04:57;;;;;;;1.60;1.50;;;23.10;52.70;;;27.02;35.29;100857.41;5114994;28;20103;-11
2021/09/16 06:07:23;;;;;;;1.77;1.67;;;23.10;52.80;;;27.00;35.23;100862.91;5114985;28;20089;-11
2021/09/16 06:09:49;;;;;;;2.03;1.83;;;23.00;52.80;;;26.99;35.48;100856.66;5115158;28;20048;-11
2021/09/16 06:12:15;;;;;;;1.67;1.58;;;23.10;52.80;;;27.01;35.55;100864.59;5114877;28;20055;-11
2021/09/16 06:14:41;;;;;;;1.48;1.38;;;23.10;52.70;;;27.02;35.24;100868.97;5115139;28;20403;-11
2021/09/16 06:17:07;;;;;;;1.80;1.70;;;23.00;52.70;;;27.01;35.33;100866.44;5115090;28;20078;-11
2021/09/16 06:19:32;;;;;;;1.70;1.60;;;23.10;52.70;;;27.01;35.26;100872.63;5114733;28;20070;-11
2021/09/16 06:21:58;;;;;;;1.65;1.55;;;23.10;52.60;;;27.02;35.21;100870.81;5114582;28;21398;-11
2021/09/16 06:24:24;;;;;;;1.60;1.50;;;23.10;52.60;;;27.04;35.51;100880.44;5114626;28;20048;-11
2021/09/16 06:26:50;;;;;;;1.85;1.60;;;23.10;52.80;;;27.04;35.39;100879.59;5115275;28;20594;-11
2021/09/16 06:29:16;;;;;;;1.70;1.60;;;23.10;52.80;;;27.02;35.38;100876.19;5114718;28;20476;-11
2021/09/16 06:31:41;;;;;;;2.08;1.88;;;23.10;53.20;;;27.04;35.23;100883.13;5114606;28;20043;-11
2021/09/16 06:34:07;;;;;;;1.50;1.40;;;23.10;52.70;;;27.04;35.16;100885.78;5094611;28;20051;-11
2021/09/16 06:36:33;;;;;;;1.50;1.40;;;23.10;52.70;;;27.04;35.37;100891.16;5114173;28;20047;-11
2021/09/16 06:38:59;;;;;;;1.55;1.42;;;23.10;52.70;;;27.03;35.24;100875.19;5114278;28;20522;-11
2021/09/16 06:41:25;;;;;;;1.67;1.58;;;23.10;52.70;;;27.05;35.51;100884.81;5115070;28;20048;-11
2021/09/16 06:43:51;;;;;;;1.73;1.60;;;23.10;52.70;;;27.06;35.47;100881.13;5114557;28;20055;-11
2021/09/16 06:46:16;;;;;;;1.60;1.50;;;23.10;52.60;;;27.04;35.21;100877.75;5114615;28;20139;-11
2021/09/16 06:48:42;;;;;;;1.60;1.50;;;23.10;52.60;;;27.06;35.13;100882.97;5114156;28;20055;-11
2021/09/16 06:51:08;;;;;;;1.38;1.27;;;23.10;52.50;;;27.05;35.14;100881.25;5114540;28;20039;-11
2021/09/16 06:53:34;;;;;;;1.77;1.60;;;23.10;52.60;;;27.03;35.25;100881.44;5113935;28;20062;-11
2021/09/16 06:56:00;;;;;;;1.50;1.40;;;23.10;52.70;;;27.05;35.14;100883.94;5113899;28;20509;-11
2021/09/16 06:58:26;;;;;;;1.58;1.48;;;23.10;52.60;;;27.07;35.40;100892.75;5114244;28;20044;-11
2021/09/16 07:00:52;;;;;;;2.03;1.50;;;23.10;52.60;;;27.04;35.32;100880.44;5113844;28;20071;-11
2021/09/16 07:03:17;;;;;;;1.63;1.52;;;23.10;52.60;;;27.06;35.26;100894.56;5114348;28;20051;-11
2021/09/16 07:05:43;;;;;;;1.45;1.35;;;23.10;52.60;;;27.06;35.10;100891.88;5114261;28;20047;-11
2021/09/16 07:08:09;;;;;;;1.67;1.58;;;23.10;52.60;;;27.08;35.44;100902.47;5114459;28;20055;-11
2021/09/16 07:10:35;;;;;;;1.48;1.38;;;23.10;52.70;;;27.07;35.20;100895.44;5113992;28;20043;-11
2021/09/16 07:13:00;;;;;;;4.50;1.40;;;23.10;52.70;;;27.07;35.31;100898.09;5114154;28;20051;-11
2021/09/16 07:15:26;;;;;;;1.73;1.63;;;23.10;52.60;;;27.06;35.45;100899.09;5114119;28;20047;-11
2021/09/16 07:17:52;;;;;;;1.50;1.40;;;23.10;52.70;;;27.07;35.28;100901.63;5113740;28;20050;-11
2021/09/16 07:20:18;;;;;;;1.63;1.50;;;23.10;52.70;;;27.06;35.29;100894.56;5093917;28;20048;-11
2021/09/16 07:22:44;;;;;;;1.38;1.27;;;23.10;52.70;;;27.09;35.55;100905.03;5113765;28;20077;-11
2021/09/16 07:25:10;;;;;;;1.85;1.70;;;23.10;52.70;;;27.07;35.24;100906.16;5114339;28;20046;-12
2021/09/16 07:27:36;;;;;;;1.60;1.50;;;23.10;52.70;;;27.06;35.37;100905.28;5113435;28;20081;-11
2021/09/16 07:30:04;;;;;;;1.50;1.30;;;23.10;52.60;;;27.08;35.40;100907.84;5113709;28;20097;-11
2021/09/16 07:32:30;;;;;;;1.55;1.45;;;23.10;52.70;;;27.11;35.31;100910.25;5095303;28;20503;-11
2021/09/16 07:34:56;;;;;;;1.48;1.38;;;23.20;52.70;;;27.11;35.43;100913.78;5114021;28;20051;-11
2021/09/16 07:37:22;;;;;;;1.60;1.50;;;23.10;52.60;;;27.10;35.18;100905.91;5114127;28;20048;-11
2021/09/16 07:39:47;;;;;;;1.63;1.52;;;23.10;52.60;;;27.09;35.33;100902.34;5113565;28;20482;-11
2021/09/16 07:42:13;;;;;;;1.83;1.40;;;23.10;52.70;;;27.08;35.36;100906.03;5113792;28;20063;-11
2021/09/16 07:44:39;;;;;;;1.40;1.30;;;23.20;52.70;;;27.12;35.18;100914.66;5113343;28;20131;-11
2021/09/16 07:47:05;;;;;;;1.60;1.50;;;23.10;52.70;;;27.12;35.33;100909.28;5112557;28;20044;-11
2021/09/16 07:49:30;;;;;;;1.88;1.77;;;23.20;52.80;;;27.12;35.42;100914.66;5113558;28;20047;-11
2021/09/16 07:51:56;;;;;;;1.50;1.40;;;23.10;52.70;;;27.12;35.28;100912.81;5113328;28;20048;-11
2021/09/16 07:54:22;;;;;;;1.70;1.60;;;23.10;52.60;;;27.13;35.55;100919.03;5113277;28;20051;-11
2021/09/16 07:56:48;;;;;;;2.20;1.70;;;23.20;52.60;;;27.13;35.48;100917.22;5113365;28;20043;-12
2021/09/16 07:59:15;;;;;;;2.05;1.50;;;23.20;52.70;;;27.12;35.39;100915.50;5113117;28;20043;-11
2021/09/16 08:01:41;;;;;;;2.72;1.50;;;23.20;52.60;;;27.14;35.15;100921.56;5113372;28;20039;-11
2021/09/16 08:04:07;;;;;;;1.30;1.20;;;23.20;52.50;;;27.16;35.40;100930.38;5113137;28;20066;-11
2021/09/16 08:06:33;;;;;;;1.48;1.38;;;23.20;52.50;;;27.14;35.24;100920.72;5113111;28;20068;-11
2021/09/16 08:08:59;;;;;;;1.35;1.25;;;23.20;52.50;;;27.17;35.34;100926.69;5112846;28;20047;-11
2021/09/16 08:11:24;;;;;;;1.42;1.20;;;23.20;52.60;;;27.17;35.15;100915.94;5113319;28;20395;-11
2021/09/16 08:13:51;;;;;;;1.50;1.40;;;23.20;52.60;;;27.15;35.34;100914.41;5112942;28;20135;-11
2021/09/16 08:16:19;;;;;;;2.70;1.35;;;23.20;52.60;;;27.18;35.19;100922.16;5112919;28;20135;-12
2021/09/16 08:18:46;;;;;;;1.40;1.30;;;23.20;52.70;;;27.18;35.42;100925.72;5113154;28;20044;-11
2021/09/16 08:21:15;;;;;;;1.40;1.30;;;23.20;52.60;;;27.19;35.18;100929.22;5112837;28;20085;-11
2021/09/16 08:23:43;;;;;;;1.65;1.30;;;23.20;52.50;;;27.20;35.44;100924.69;5112838;28;20407;-11
2021/09/16 08:26:10;;;;;;;1.40;1.30;;;23.20;52.50;;;27.20;35.44;100928.25;5112848;28;20050;-11
2021/09/16 08:28:36;;;;;;;1.63;1.30;;;23.20;52.50;;;27.21;35.32;100927.25;5113161;28;20068;-11
2021/09/16 08:31:03;;;;;;;1.60;1.50;;;23.20;52.40;;;27.21;35.21;100926.41;5112801;28;20063;-11
2021/09/16 08:33:29;;;;;;;4.22;1.70;;;23.30;52.40;;;27.23;35.30;100935.19;5112815;28;20071;-11
2021/09/16 08:35:55;;;;;;;1.40;1.30;;;23.30;52.30;;;27.23;35.28;100932.50;5112877;28;20051;-11
2021/09/16 08:38:20;;;;;;;1.20;1.20;;;23.30;52.20;;;27.22;35.29;100922.75;5112335;28;20499;-11
2021/09/16 08:40:46;;;;;;;1.73;1.45;;;23.30;52.30;;;27.23;35.20;100932.50;5112503;28;20105;-11
2021/09/16 08:43:13;;;;;;;1.30;1.20;;;23.30;52.20;;;27.25;35.20;100936.75;5112874;28;20138;-11
2021/09/16 08:45:40;;;;;;;1.52;1.40;;;23.30;52.30;;;27.24;35.27;100918.09;5094247;28;20051;-11
2021/09/16 08:48:07;;;;;;;1.60;1.50;;;23.30;52.40;;;27.24;35.30;100920.78;5112442;28;20082;-12
2021/09/16 08:50:33;;;;;;;1.40;1.25;;;23.30;52.30;;;27.27;35.30;100921.34;5112372;28;20047;-11
2021/09/16 08:52:59;;;;;;;1.08;0.98;;;23.30;52.30;;;27.31;34.97;100935.38;5112493;28;20503;-11
2021/09/16 08:55:27;;;;;;;1.35;1.25;;;23.30;52.30;;;27.28;35.35;100916.81;5094199;28;20059;-11
2021/09/16 08:58:00;;;;;;;1.50;1.40;;;23.40;52.30;;;27.29;35.13;100911.34;5094900;28;20401;-11
2021/09/16 09:00:28;;;;;;;1.30;1.20;;;23.40;52.20;;;27.33;35.38;100911.94;5116313;28;20494;-11
2021/09/16 09:02:56;;;;;;;1.30;1.20;;;23.40;52.10;;;27.34;35.18;100908.28;5115996;28;20051;-11
2021/09/16 09:05:22;;;;;;;1.42;1.33;;;23.40;52.00;;;27.35;35.03;100912.66;5116483;28;20047;-11
2021/09/16 09:07:53;;;;;;;1.60;1.50;;;23.50;52.00;;;27.38;35.04;100923.09;5116070;28;20040;-11
2021/09/16 09:10:43;;;;;;;;;;;23.50;51.90;;;27.54;34.58;100918.06;5116148;28;20044;-11
2021/09/16 09:13:16;;;;;;;1.70;1.38;;;23.50;51.90;;;27.44;35.11;100911.00;5115674;28;19969;-11
2021/09/16 09:15:45;;;;;;;1.83;1.40;;;23.50;51.70;;;27.45;34.94;100913.53;5115647;28;20044;-11
2021/09/16 09:18:14;;;;;;;1.50;1.20;;;23.50;51.70;;;27.45;34.80;100918.91;5115562;28;20130;-11
2021/09/16 09:20:59;;;;;;;1.30;1.20;;;23.60;51.80;;;27.46;35.14;100920.59;5115661;28;20047;-11
2021/09/16 09:23:39;;;;;;;1.58;1.40;;;23.60;51.80;;;27.44;34.96;100925.25;5115257;28;20048;-11
2021/09/16 09:26:28;;;;;;;1.55;1.30;;;23.60;51.80;;;27.44;34.89;100917.19;5115451;28;20043;-11
2021/09/16 09:29:07;;;;;;;1.30;1.20;;;23.50;51.80;;;27.45;34.89;100913.53;5115362;28;20467;-11
2021/09/16 09:31:39;;;;;;;1.35;1.17;;;23.60;51.80;;;27.45;34.75;100918.91;5115781;28;20548;-11
2021/09/16 09:34:28;;;;;;;2.22;1.50;;;23.60;51.80;;;27.46;34.86;100923.28;5116068;28;20479;-11
2021/09/16 09:37:10;;;;;;;1.30;1.20;;;23.50;51.70;;;27.43;34.92;100911.97;5115600;28;20043;-11
2021/09/16 09:39:37;;;;;;;1.63;1.30;;;23.50;51.80;;;27.48;35.05;100920.47;5115666;28;20044;-11
2021/09/16 09:42:25;;;;;;;1.30;1.20;;;23.50;51.80;;;27.47;34.81;100916.94;5096495;28;20121;-11
2021/09/16 09:45:10;;;;;;;1.20;1.13;;;23.50;51.80;;;27.47;35.03;100927.69;5115142;28;20131;-11
2021/09/16 09:47:38;;;;;;;2.28;1.42;;;23.60;52.30;;;27.48;34.91;100918.66;5115317;28;20487;-11
2021/09/16 09:50:15;;;;;;;1.30;1.20;;;23.60;51.70;;;27.48;35.09;100907.03;5115161;28;20043;-11
2021/09/16 09:52:41;;;;;;;1.23;1.13;;;23.60;51.60;;;27.49;35.01;100922.16;5115751;28;20142;-11
2021/09/16 09:55:24;;;;;;;1.33;1.23;;;23.60;51.60;;;27.48;35.09;100923.16;5115357;28;20048;-11
2021/09/16 09:58:03;;;;;;;1.27;1.17;;;23.70;51.60;;;27.51;35.02;100925.56;5096736;28;20456;-11
2021/09/16 10:00:29;;;;;;;1.58;1.33;;;23.60;51.60;;;27.54;34.92;100926.13;5115344;28;20044;-11
2021/09/16 10:02:55;;;;;;;2.03;1.27;;;23.70;51.60;;;27.54;34.92;100922.59;5115023;28;20499;-11
2021/09/16 10:05:31;;;;;;;1.70;1.20;;;23.60;51.60;;;27.56;34.56;100919.78;5114730;28;20047;-11
2021/09/16 10:08:06;;;;;;;2.40;1.50;;;23.60;51.60;;;27.53;34.71;100916.41;5114998;28;20047;-11
2021/09/16 10:10:39;;;;;;;1.33;1.20;;;23.70;51.70;;;27.55;34.87;100918.94;5114612;28;20146;-11
2021/09/16 10:13:05;;;;;;;1.90;1.52;;;23.60;51.60;;;27.56;34.68;100928.69;5114809;28;20089;-11